sensor_id;sensor_type;location;lat;lon;timestamp;P1;durP1;ratioP1;P2;durP2;ratioP2
20026;SDS011;10174;42.688;23.344;2022-10-13T00:00:26;50.13;;;24.10;;
20026;SDS011;10174;42.688;23.344;2022-10-13T00:02:52;53.15;;;24.05;;
20026;SDS011;10174;42.688;23.344;2022-10-13T00:05:17;58.83;;;25.05;;
20026;SDS011;10174;42.688;23.344;2022-10-13T00:07:43;57.58;;;27.92;;
20026;SDS011;10174;42.688;23.344;2022-10-13T00:10:08;58.33;;;26.63;;
20026;SDS011;10174;42.688;23.344;2022-10-13T00:12:34;65.53;;;27.88;;
20026;SDS011;10174;42.688;23.344;2022-10-13T00:15:01;60.58;;;27.73;;
20026;SDS011;10174;42.688;23.344;2022-10-13T00:17:27;60.20;;;27.70;;
20026;SDS011;10174;42.688;23.344;2022-10-13T00:19:53;65.32;;;29.30;;
20026;SDS011;10174;42.688;23.344;2022-10-13T00:22:18;63.85;;;28.38;;
20026;SDS011;10174;42.688;23.344;2022-10-13T00:24:48;59.88;;;28.17;;
20026;SDS011;10174;42.688;23.344;2022-10-13T00:27:14;60.28;;;25.90;;
20026;SDS011;10174;42.688;23.344;2022-10-13T00:29:40;59.38;;;27.17;;
20026;SDS011;10174;42.688;23.344;2022-10-13T00:32:05;54.72;;;26.17;;
20026;SDS011;10174;42.688;23.344;2022-10-13T00:34:31;56.92;;;26.48;;
20026;SDS011;10174;42.688;23.344;2022-10-13T00:36:56;65.35;;;29.25;;
20026;SDS011;10174;42.688;23.344;2022-10-13T00:39:21;62.17;;;30.08;;
20026;SDS011;10174;42.688;23.344;2022-10-13T00:41:47;62.85;;;28.67;;
20026;SDS011;10174;42.688;23.344;2022-10-13T00:47:15;69.82;;;29.50;;
20026;SDS011;10174;42.688;23.344;2022-10-13T00:49:40;66.93;;;29.75;;
20026;SDS011;10174;42.688;23.344;2022-10-13T00:52:06;71.07;;;30.98;;
20026;SDS011;10174;42.688;23.344;2022-10-13T00:54:31;73.25;;;32.15;;
20026;SDS011;10174;42.688;23.344;2022-10-13T00:56:57;73.85;;;32.05;;
20026;SDS011;10174;42.688;23.344;2022-10-13T00:59:24;79.10;;;32.85;;
20026;SDS011;10174;42.688;23.344;2022-10-13T01:01:53;71.70;;;31.67;;
20026;SDS011;10174;42.688;23.344;2022-10-13T01:04:21;78.40;;;33.60;;
20026;SDS011;10174;42.688;23.344;2022-10-13T01:06:49;71.97;;;33.38;;
20026;SDS011;10174;42.688;23.344;2022-10-13T01:09:16;72.50;;;32.08;;
20026;SDS011;10174;42.688;23.344;2022-10-13T01:25:16;69.63;;;31.98;;
20026;SDS011;10174;42.688;23.344;2022-10-13T01:31:19;73.13;;;30.33;;
20026;SDS011;10174;42.688;23.344;2022-10-13T01:33:56;79.38;;;32.33;;
20026;SDS011;10174;42.688;23.344;2022-10-13T01:36:53;70.47;;;32.25;;
20026;SDS011;10174;42.688;23.344;2022-10-13T01:42:00;69.30;;;31.15;;
20026;SDS011;10174;42.688;23.344;2022-10-13T01:44:38;72.50;;;30.98;;
20026;SDS011;10174;42.688;23.344;2022-10-13T01:47:09;81.47;;;32.63;;
20026;SDS011;10174;42.688;23.344;2022-10-13T01:49:38;72.03;;;31.42;;
20026;SDS011;10174;42.688;23.344;2022-10-13T01:52:09;70.80;;;31.63;;
20026;SDS011;10174;42.688;23.344;2022-10-13T01:54:38;74.95;;;30.20;;
20026;SDS011;10174;42.688;23.344;2022-10-13T01:57:25;74.18;;;32.00;;
20026;SDS011;10174;42.688;23.344;2022-10-13T01:59:53;69.95;;;31.02;;
20026;SDS011;10174;42.688;23.344;2022-10-13T02:02:20;66.72;;;30.15;;
20026;SDS011;10174;42.688;23.344;2022-10-13T02:08:17;73.03;;;31.15;;
20026;SDS011;10174;42.688;23.344;2022-10-13T02:11:12;71.47;;;30.00;;
20026;SDS011;10174;42.688;23.344;2022-10-13T02:13:25;69.80;;;31.23;;
20026;SDS011;10174;42.688;23.344;2022-10-13T02:15:54;62.90;;;29.88;;
20026;SDS011;10174;42.688;23.344;2022-10-13T02:18:25;64.13;;;30.48;;
20026;SDS011;10174;42.688;23.344;2022-10-13T02:20:55;65.47;;;30.35;;
20026;SDS011;10174;42.688;23.344;2022-10-13T02:23:21;66.18;;;29.85;;
20026;SDS011;10174;42.688;23.344;2022-10-13T02:25:46;61.38;;;29.63;;
20026;SDS011;10174;42.688;23.344;2022-10-13T02:28:14;68.70;;;30.08;;
20026;SDS011;10174;42.688;23.344;2022-10-13T02:30:40;62.92;;;30.25;;
20026;SDS011;10174;42.688;23.344;2022-10-13T02:33:07;64.88;;;29.88;;
20026;SDS011;10174;42.688;23.344;2022-10-13T02:35:33;65.93;;;30.25;;
20026;SDS011;10174;42.688;23.344;2022-10-13T02:37:58;68.15;;;29.90;;
20026;SDS011;10174;42.688;23.344;2022-10-13T02:40:24;63.40;;;29.92;;
20026;SDS011;10174;42.688;23.344;2022-10-13T02:42:50;71.63;;;31.95;;
20026;SDS011;10174;42.688;23.344;2022-10-13T02:45:16;71.93;;;31.10;;
20026;SDS011;10174;42.688;23.344;2022-10-13T02:47:41;68.25;;;30.92;;
20026;SDS011;10174;42.688;23.344;2022-10-13T02:50:07;68.93;;;33.78;;
20026;SDS011;10174;42.688;23.344;2022-10-13T02:52:33;70.00;;;30.88;;
20026;SDS011;10174;42.688;23.344;2022-10-13T02:54:59;70.75;;;31.30;;
20026;SDS011;10174;42.688;23.344;2022-10-13T02:57:24;76.72;;;30.42;;
20026;SDS011;10174;42.688;23.344;2022-10-13T02:59:50;66.78;;;31.13;;
20026;SDS011;10174;42.688;23.344;2022-10-13T03:02:15;69.47;;;30.73;;
20026;SDS011;10174;42.688;23.344;2022-10-13T03:04:41;76.72;;;31.20;;
20026;SDS011;10174;42.688;23.344;2022-10-13T03:07:06;67.85;;;31.55;;
20026;SDS011;10174;42.688;23.344;2022-10-13T03:09:31;64.63;;;29.75;;
20026;SDS011;10174;42.688;23.344;2022-10-13T03:11:57;70.55;;;30.80;;
20026;SDS011;10174;42.688;23.344;2022-10-13T03:14:22;62.75;;;29.60;;
20026;SDS011;10174;42.688;23.344;2022-10-13T03:16:48;68.28;;;30.70;;
20026;SDS011;10174;42.688;23.344;2022-10-13T03:19:13;70.00;;;30.45;;
20026;SDS011;10174;42.688;23.344;2022-10-13T03:21:39;66.82;;;31.45;;
20026;SDS011;10174;42.688;23.344;2022-10-13T03:24:05;64.88;;;30.00;;
20026;SDS011;10174;42.688;23.344;2022-10-13T03:26:31;68.90;;;31.05;;
20026;SDS011;10174;42.688;23.344;2022-10-13T03:28:57;66.57;;;29.77;;
20026;SDS011;10174;42.688;23.344;2022-10-13T03:31:22;67.95;;;29.00;;
20026;SDS011;10174;42.688;23.344;2022-10-13T03:33:48;64.15;;;30.33;;
20026;SDS011;10174;42.688;23.344;2022-10-13T03:36:14;69.78;;;31.88;;
20026;SDS011;10174;42.688;23.344;2022-10-13T03:38:40;65.00;;;29.73;;
20026;SDS011;10174;42.688;23.344;2022-10-13T03:41:06;65.22;;;30.25;;
20026;SDS011;10174;42.688;23.344;2022-10-13T03:43:40;64.97;;;30.35;;
20026;SDS011;10174;42.688;23.344;2022-10-13T03:46:07;64.55;;;28.70;;
20026;SDS011;10174;42.688;23.344;2022-10-13T03:48:35;68.93;;;29.23;;
20026;SDS011;10174;42.688;23.344;2022-10-13T03:51:11;65.03;;;30.33;;
20026;SDS011;10174;42.688;23.344;2022-10-13T03:53:39;67.97;;;30.80;;
20026;SDS011;10174;42.688;23.344;2022-10-13T03:56:04;61.38;;;30.10;;
20026;SDS011;10174;42.688;23.344;2022-10-13T03:58:31;70.10;;;31.50;;
20026;SDS011;10174;42.688;23.344;2022-10-13T04:01:01;66.53;;;31.00;;
20026;SDS011;10174;42.688;23.344;2022-10-13T04:03:28;63.70;;;30.33;;
20026;SDS011;10174;42.688;23.344;2022-10-13T04:05:54;65.88;;;30.63;;
20026;SDS011;10174;42.688;23.344;2022-10-13T04:08:19;59.55;;;28.80;;
20026;SDS011;10174;42.688;23.344;2022-10-13T04:10:45;54.08;;;28.98;;
20026;SDS011;10174;42.688;23.344;2022-10-13T04:13:10;62.38;;;28.92;;
20026;SDS011;10174;42.688;23.344;2022-10-13T04:15:36;58.85;;;29.23;;
20026;SDS011;10174;42.688;23.344;2022-10-13T04:18:03;84.43;;;35.63;;
20026;SDS011;10174;42.688;23.344;2022-10-13T04:20:29;65.45;;;29.65;;
20026;SDS011;10174;42.688;23.344;2022-10-13T04:22:55;60.80;;;28.58;;
20026;SDS011;10174;42.688;23.344;2022-10-13T04:25:20;66.13;;;28.90;;
20026;SDS011;10174;42.688;23.344;2022-10-13T04:27:45;66.57;;;30.67;;
20026;SDS011;10174;42.688;23.344;2022-10-13T04:30:12;75.65;;;31.15;;
20026;SDS011;10174;42.688;23.344;2022-10-13T04:32:38;61.65;;;28.67;;
20026;SDS011;10174;42.688;23.344;2022-10-13T04:35:03;71.53;;;29.85;;
20026;SDS011;10174;42.688;23.344;2022-10-13T04:37:29;64.43;;;27.63;;
20026;SDS011;10174;42.688;23.344;2022-10-13T04:39:54;67.95;;;29.38;;
20026;SDS011;10174;42.688;23.344;2022-10-13T04:42:20;58.65;;;28.00;;
20026;SDS011;10174;42.688;23.344;2022-10-13T04:44:45;60.92;;;28.92;;
20026;SDS011;10174;42.688;23.344;2022-10-13T04:47:10;64.90;;;29.67;;
20026;SDS011;10174;42.688;23.344;2022-10-13T04:49:36;60.92;;;29.10;;
20026;SDS011;10174;42.688;23.344;2022-10-13T04:52:01;69.00;;;30.40;;
20026;SDS011;10174;42.688;23.344;2022-10-13T04:54:27;59.03;;;29.15;;
20026;SDS011;10174;42.688;23.344;2022-10-13T04:56:53;74.30;;;37.95;;
20026;SDS011;10174;42.688;23.344;2022-10-13T04:59:18;68.72;;;33.88;;
20026;SDS011;10174;42.688;23.344;2022-10-13T05:01:43;75.13;;;32.78;;
20026;SDS011;10174;42.688;23.344;2022-10-13T05:04:09;55.35;;;27.38;;
20026;SDS011;10174;42.688;23.344;2022-10-13T05:06:36;67.03;;;28.50;;
20026;SDS011;10174;42.688;23.344;2022-10-13T05:09:04;70.78;;;31.00;;
20026;SDS011;10174;42.688;23.344;2022-10-13T05:11:29;72.82;;;31.50;;
20026;SDS011;10174;42.688;23.344;2022-10-13T05:13:56;54.05;;;27.90;;
20026;SDS011;10174;42.688;23.344;2022-10-13T05:16:22;65.28;;;28.33;;
20026;SDS011;10174;42.688;23.344;2022-10-13T05:18:49;65.72;;;28.45;;
20026;SDS011;10174;42.688;23.344;2022-10-13T05:21:22;60.85;;;27.92;;
20026;SDS011;10174;42.688;23.344;2022-10-13T05:23:50;67.15;;;28.63;;
20026;SDS011;10174;42.688;23.344;2022-10-13T05:26:21;67.38;;;29.73;;
20026;SDS011;10174;42.688;23.344;2022-10-13T05:28:51;59.90;;;28.40;;
20026;SDS011;10174;42.688;23.344;2022-10-13T05:31:18;63.90;;;29.80;;
20026;SDS011;10174;42.688;23.344;2022-10-13T05:33:49;65.80;;;30.00;;
20026;SDS011;10174;42.688;23.344;2022-10-13T05:36:17;64.57;;;29.60;;
20026;SDS011;10174;42.688;23.344;2022-10-13T05:38:44;63.83;;;30.27;;
20026;SDS011;10174;42.688;23.344;2022-10-13T05:41:13;72.60;;;30.73;;
20026;SDS011;10174;42.688;23.344;2022-10-13T05:43:39;86.60;;;40.00;;
20026;SDS011;10174;42.688;23.344;2022-10-13T05:46:05;102.10;;;46.05;;
20026;SDS011;10174;42.688;23.344;2022-10-13T05:48:31;115.60;;;50.45;;
20026;SDS011;10174;42.688;23.344;2022-10-13T05:50:58;117.18;;;49.17;;
20026;SDS011;10174;42.688;23.344;2022-10-13T05:53:26;117.85;;;48.67;;
20026;SDS011;10174;42.688;23.344;2022-10-13T05:55:55;123.60;;;46.70;;
20026;SDS011;10174;42.688;23.344;2022-10-13T05:58:30;133.90;;;49.38;;
20026;SDS011;10174;42.688;23.344;2022-10-13T06:00:58;132.95;;;51.13;;
20026;SDS011;10174;42.688;23.344;2022-10-13T06:03:24;140.13;;;51.58;;
20026;SDS011;10174;42.688;23.344;2022-10-13T06:05:51;132.80;;;49.50;;
20026;SDS011;10174;42.688;23.344;2022-10-13T06:08:17;163.57;;;69.65;;
20026;SDS011;10174;42.688;23.344;2022-10-13T06:10:42;130.57;;;46.88;;
20026;SDS011;10174;42.688;23.344;2022-10-13T06:13:09;133.52;;;49.25;;
20026;SDS011;10174;42.688;23.344;2022-10-13T06:15:35;150.38;;;52.30;;
20026;SDS011;10174;42.688;23.344;2022-10-13T06:18:00;125.68;;;50.05;;
20026;SDS011;10174;42.688;23.344;2022-10-13T06:20:26;127.15;;;49.97;;
20026;SDS011;10174;42.688;23.344;2022-10-13T06:22:55;137.60;;;52.25;;
20026;SDS011;10174;42.688;23.344;2022-10-13T06:25:20;134.43;;;51.05;;
20026;SDS011;10174;42.688;23.344;2022-10-13T06:27:46;125.50;;;49.97;;
20026;SDS011;10174;42.688;23.344;2022-10-13T06:30:11;123.18;;;46.40;;
20026;SDS011;10174;42.688;23.344;2022-10-13T06:32:37;112.28;;;45.30;;
20026;SDS011;10174;42.688;23.344;2022-10-13T06:35:02;121.03;;;45.13;;
20026;SDS011;10174;42.688;23.344;2022-10-13T06:37:28;116.63;;;46.65;;
20026;SDS011;10174;42.688;23.344;2022-10-13T06:39:54;107.10;;;44.03;;
20026;SDS011;10174;42.688;23.344;2022-10-13T06:42:19;105.60;;;41.80;;
20026;SDS011;10174;42.688;23.344;2022-10-13T06:44:45;103.82;;;43.85;;
20026;SDS011;10174;42.688;23.344;2022-10-13T06:47:10;111.10;;;44.47;;
20026;SDS011;10174;42.688;23.344;2022-10-13T06:49:35;102.55;;;44.17;;
20026;SDS011;10174;42.688;23.344;2022-10-13T06:52:02;84.93;;;38.20;;
20026;SDS011;10174;42.688;23.344;2022-10-13T06:54:28;102.72;;;43.35;;
20026;SDS011;10174;42.688;23.344;2022-10-13T06:56:54;89.95;;;39.78;;
20026;SDS011;10174;42.688;23.344;2022-10-13T06:59:20;85.18;;;38.47;;
20026;SDS011;10174;42.688;23.344;2022-10-13T07:01:46;111.78;;;47.95;;
20026;SDS011;10174;42.688;23.344;2022-10-13T07:04:12;88.90;;;39.72;;
20026;SDS011;10174;42.688;23.344;2022-10-13T07:06:38;84.07;;;38.78;;
20026;SDS011;10174;42.688;23.344;2022-10-13T07:09:06;88.25;;;38.53;;
20026;SDS011;10174;42.688;23.344;2022-10-13T07:11:32;87.53;;;39.60;;
20026;SDS011;10174;42.688;23.344;2022-10-13T07:13:58;82.15;;;37.72;;
20026;SDS011;10174;42.688;23.344;2022-10-13T07:16:24;86.78;;;37.70;;
20026;SDS011;10174;42.688;23.344;2022-10-13T07:18:50;93.53;;;42.90;;
20026;SDS011;10174;42.688;23.344;2022-10-13T07:21:16;90.05;;;41.47;;
20026;SDS011;10174;42.688;23.344;2022-10-13T07:23:41;84.72;;;38.22;;
20026;SDS011;10174;42.688;23.344;2022-10-13T07:26:08;94.20;;;47.50;;
20026;SDS011;10174;42.688;23.344;2022-10-13T07:28:35;106.05;;;54.60;;
20026;SDS011;10174;42.688;23.344;2022-10-13T07:31:05;87.78;;;41.00;;
20026;SDS011;10174;42.688;23.344;2022-10-13T07:33:40;90.22;;;40.08;;
20026;SDS011;10174;42.688;23.344;2022-10-13T07:36:07;116.50;;;51.15;;
20026;SDS011;10174;42.688;23.344;2022-10-13T07:38:33;117.18;;;49.78;;
20026;SDS011;10174;42.688;23.344;2022-10-13T07:40:59;86.32;;;39.78;;
20026;SDS011;10174;42.688;23.344;2022-10-13T07:43:26;87.85;;;40.72;;
20026;SDS011;10174;42.688;23.344;2022-10-13T07:45:51;140.75;;;68.15;;
20026;SDS011;10174;42.688;23.344;2022-10-13T07:48:17;101.90;;;42.88;;
20026;SDS011;10174;42.688;23.344;2022-10-13T07:50:42;89.75;;;40.65;;
20026;SDS011;10174;42.688;23.344;2022-10-13T07:53:07;87.63;;;38.08;;
20026;SDS011;10174;42.688;23.344;2022-10-13T07:55:33;83.13;;;37.90;;
20026;SDS011;10174;42.688;23.344;2022-10-13T07:58:01;88.65;;;39.22;;
20026;SDS011;10174;42.688;23.344;2022-10-13T08:00:27;76.45;;;37.53;;
20026;SDS011;10174;42.688;23.344;2022-10-13T08:02:53;87.20;;;38.67;;
20026;SDS011;10174;42.688;23.344;2022-10-13T08:05:19;82.43;;;40.38;;
20026;SDS011;10174;42.688;23.344;2022-10-13T08:07:44;79.05;;;36.47;;
20026;SDS011;10174;42.688;23.344;2022-10-13T08:10:09;74.43;;;36.33;;
20026;SDS011;10174;42.688;23.344;2022-10-13T08:12:35;75.50;;;38.15;;
20026;SDS011;10174;42.688;23.344;2022-10-13T08:15:02;81.05;;;39.63;;
20026;SDS011;10174;42.688;23.344;2022-10-13T08:17:27;73.53;;;35.30;;
20026;SDS011;10174;42.688;23.344;2022-10-13T08:19:53;81.03;;;38.13;;
20026;SDS011;10174;42.688;23.344;2022-10-13T08:22:19;72.65;;;34.33;;
20026;SDS011;10174;42.688;23.344;2022-10-13T08:24:44;80.32;;;34.85;;
20026;SDS011;10174;42.688;23.344;2022-10-13T08:27:10;68.10;;;36.10;;
20026;SDS011;10174;42.688;23.344;2022-10-13T08:29:42;72.35;;;36.00;;
20026;SDS011;10174;42.688;23.344;2022-10-13T08:32:07;73.35;;;34.22;;
20026;SDS011;10174;42.688;23.344;2022-10-13T08:34:33;68.43;;;33.95;;
20026;SDS011;10174;42.688;23.344;2022-10-13T08:37:00;69.05;;;34.88;;
20026;SDS011;10174;42.688;23.344;2022-10-13T08:39:25;67.00;;;33.17;;
20026;SDS011;10174;42.688;23.344;2022-10-13T08:41:51;66.40;;;33.10;;
20026;SDS011;10174;42.688;23.344;2022-10-13T08:47:00;67.07;;;30.92;;
20026;SDS011;10174;42.688;23.344;2022-10-13T08:49:26;60.85;;;32.38;;
20026;SDS011;10174;42.688;23.344;2022-10-13T08:51:52;63.58;;;32.10;;
20026;SDS011;10174;42.688;23.344;2022-10-13T08:54:18;58.47;;;29.85;;
20026;SDS011;10174;42.688;23.344;2022-10-13T08:56:46;63.30;;;33.42;;
20026;SDS011;10174;42.688;23.344;2022-10-13T08:59:15;73.88;;;37.75;;
20026;SDS011;10174;42.688;23.344;2022-10-13T09:01:42;59.28;;;32.00;;
20026;SDS011;10174;42.688;23.344;2022-10-13T09:07:27;61.47;;;30.48;;
20026;SDS011;10174;42.688;23.344;2022-10-13T09:09:51;63.35;;;31.10;;
20026;SDS011;10174;42.688;23.344;2022-10-13T09:12:18;58.42;;;29.85;;
20026;SDS011;10174;42.688;23.344;2022-10-13T09:15:04;60.22;;;30.13;;
20026;SDS011;10174;42.688;23.344;2022-10-13T09:17:32;58.15;;;30.63;;
20026;SDS011;10174;42.688;23.344;2022-10-13T09:20:00;57.92;;;29.30;;
20026;SDS011;10174;42.688;23.344;2022-10-13T09:22:29;57.63;;;27.33;;
20026;SDS011;10174;42.688;23.344;2022-10-13T09:27:51;58.20;;;29.90;;
20026;SDS011;10174;42.688;23.344;2022-10-13T09:30:35;46.47;;;23.77;;
20026;SDS011;10174;42.688;23.344;2022-10-13T09:35:34;46.15;;;24.30;;
20026;SDS011;10174;42.688;23.344;2022-10-13T09:38:10;50.15;;;25.80;;
20026;SDS011;10174;42.688;23.344;2022-10-13T09:40:42;43.90;;;23.83;;
20026;SDS011;10174;42.688;23.344;2022-10-13T09:43:19;52.10;;;26.38;;
20026;SDS011;10174;42.688;23.344;2022-10-13T09:45:50;42.42;;;24.77;;
20026;SDS011;10174;42.688;23.344;2022-10-13T09:48:18;43.80;;;22.85;;
20026;SDS011;10174;42.688;23.344;2022-10-13T09:50:48;46.38;;;23.45;;
20026;SDS011;10174;42.688;23.344;2022-10-13T09:56:06;47.85;;;23.60;;
20026;SDS011;10174;42.688;23.344;2022-10-13T09:58:33;38.92;;;20.55;;
20026;SDS011;10174;42.688;23.344;2022-10-13T10:01:05;29.90;;;15.07;;
20026;SDS011;10174;42.688;23.344;2022-10-13T10:03:42;31.85;;;16.75;;
20026;SDS011;10174;42.688;23.344;2022-10-13T10:06:08;35.35;;;17.25;;
20026;SDS011;10174;42.688;23.344;2022-10-13T10:08:44;28.90;;;17.20;;
20026;SDS011;10174;42.688;23.344;2022-10-13T10:11:14;32.35;;;17.17;;
20026;SDS011;10174;42.688;23.344;2022-10-13T10:13:43;30.60;;;17.75;;
20026;SDS011;10174;42.688;23.344;2022-10-13T10:16:10;27.15;;;15.55;;
20026;SDS011;10174;42.688;23.344;2022-10-13T10:18:41;26.98;;;14.93;;
20026;SDS011;10174;42.688;23.344;2022-10-13T10:29:32;31.50;;;19.40;;
20026;SDS011;10174;42.688;23.344;2022-10-13T10:38:33;54.08;;;27.10;;
20026;SDS011;10174;42.688;23.344;2022-10-13T10:44:22;32.95;;;16.33;;
20026;SDS011;10174;42.688;23.344;2022-10-13T10:46:55;24.67;;;12.20;;
20026;SDS011;10174;42.688;23.344;2022-10-13T10:49:30;27.95;;;14.02;;
20026;SDS011;10174;42.688;23.344;2022-10-13T10:51:59;26.00;;;13.23;;
20026;SDS011;10174;42.688;23.344;2022-10-13T10:54:36;24.83;;;12.98;;
20026;SDS011;10174;42.688;23.344;2022-10-13T10:57:10;27.80;;;12.82;;
20026;SDS011;10174;42.688;23.344;2022-10-13T11:04:59;22.13;;;13.35;;
20026;SDS011;10174;42.688;23.344;2022-10-13T11:14:47;24.05;;;12.00;;
20026;SDS011;10174;42.688;23.344;2022-10-13T11:19:55;21.95;;;11.40;;
20026;SDS011;10174;42.688;23.344;2022-10-13T11:22:23;20.73;;;11.93;;
20026;SDS011;10174;42.688;23.344;2022-10-13T11:24:51;22.50;;;12.05;;
20026;SDS011;10174;42.688;23.344;2022-10-13T11:27:36;29.45;;;12.85;;
20026;SDS011;10174;42.688;23.344;2022-10-13T11:30:04;22.70;;;11.88;;
20026;SDS011;10174;42.688;23.344;2022-10-13T11:37:29;29.02;;;14.32;;
20026;SDS011;10174;42.688;23.344;2022-10-13T11:46:29;29.40;;;13.70;;
20026;SDS011;10174;42.688;23.344;2022-10-13T11:55:09;26.00;;;12.57;;
20026;SDS011;10174;42.688;23.344;2022-10-13T12:00:03;20.93;;;11.63;;
20026;SDS011;10174;42.688;23.344;2022-10-13T12:02:36;23.88;;;11.52;;
20026;SDS011;10174;42.688;23.344;2022-10-13T12:05:19;20.58;;;11.57;;
20026;SDS011;10174;42.688;23.344;2022-10-13T12:07:53;25.17;;;12.23;;
20026;SDS011;10174;42.688;23.344;2022-10-13T12:10:28;21.10;;;11.27;;
20026;SDS011;10174;42.688;23.344;2022-10-13T12:12:56;25.03;;;11.37;;
20026;SDS011;10174;42.688;23.344;2022-10-13T12:18:01;30.52;;;10.73;;
20026;SDS011;10174;42.688;23.344;2022-10-13T12:20:28;17.35;;;10.02;;
20026;SDS011;10174;42.688;23.344;2022-10-13T12:22:55;27.33;;;11.18;;
20026;SDS011;10174;42.688;23.344;2022-10-13T12:25:22;26.75;;;12.73;;
20026;SDS011;10174;42.688;23.344;2022-10-13T12:27:54;19.52;;;10.43;;
20026;SDS011;10174;42.688;23.344;2022-10-13T12:30:23;21.20;;;10.68;;
20026;SDS011;10174;42.688;23.344;2022-10-13T12:32:52;21.23;;;11.10;;
20026;SDS011;10174;42.688;23.344;2022-10-13T12:35:23;24.73;;;10.90;;
20026;SDS011;10174;42.688;23.344;2022-10-13T12:37:54;24.50;;;9.98;;
20026;SDS011;10174;42.688;23.344;2022-10-13T12:40:21;18.60;;;10.80;;
20026;SDS011;10174;42.688;23.344;2022-10-13T12:42:47;42.55;;;16.45;;
20026;SDS011;10174;42.688;23.344;2022-10-13T12:45:20;64.63;;;27.83;;
20026;SDS011;10174;42.688;23.344;2022-10-13T12:47:50;25.67;;;11.77;;
20026;SDS011;10174;42.688;23.344;2022-10-13T12:53:35;20.50;;;10.55;;
20026;SDS011;10174;42.688;23.344;2022-10-13T12:55:53;25.83;;;10.73;;
20026;SDS011;10174;42.688;23.344;2022-10-13T12:58:26;16.80;;;10.68;;
20026;SDS011;10174;42.688;23.344;2022-10-13T13:01:39;21.38;;;11.07;;
20026;SDS011;10174;42.688;23.344;2022-10-13T13:03:52;23.83;;;10.93;;
20026;SDS011;10174;42.688;23.344;2022-10-13T13:06:21;19.10;;;10.77;;
20026;SDS011;10174;42.688;23.344;2022-10-13T13:09:06;25.02;;;11.00;;
20026;SDS011;10174;42.688;23.344;2022-10-13T13:11:42;18.33;;;10.10;;
20026;SDS011;10174;42.688;23.344;2022-10-13T13:19:39;16.85;;;9.90;;
20026;SDS011;10174;42.688;23.344;2022-10-13T13:22:10;23.95;;;11.50;;
20026;SDS011;10174;42.688;23.344;2022-10-13T13:24:36;28.00;;;11.40;;
20026;SDS011;10174;42.688;23.344;2022-10-13T13:27:24;19.20;;;10.02;;
20026;SDS011;10174;42.688;23.344;2022-10-13T13:29:50;16.48;;;9.18;;
20026;SDS011;10174;42.688;23.344;2022-10-13T13:32:17;18.90;;;10.00;;
20026;SDS011;10174;42.688;23.344;2022-10-13T13:34:44;18.23;;;9.73;;
20026;SDS011;10174;42.688;23.344;2022-10-13T13:37:12;18.58;;;9.70;;
20026;SDS011;10174;42.688;23.344;2022-10-13T13:39:40;16.20;;;9.73;;
20026;SDS011;10174;42.688;23.344;2022-10-13T13:42:08;19.52;;;10.77;;
20026;SDS011;10174;42.688;23.344;2022-10-13T13:44:37;17.45;;;9.38;;
20026;SDS011;10174;42.688;23.344;2022-10-13T13:47:03;19.83;;;9.52;;
20026;SDS011;10174;42.688;23.344;2022-10-13T13:49:29;16.63;;;8.70;;
20026;SDS011;10174;42.688;23.344;2022-10-13T13:51:54;20.30;;;9.77;;
20026;SDS011;10174;42.688;23.344;2022-10-13T13:54:19;21.45;;;8.98;;
20026;SDS011;10174;42.688;23.344;2022-10-13T13:56:45;23.08;;;9.45;;
20026;SDS011;10174;42.688;23.344;2022-10-13T13:59:10;23.38;;;10.98;;
20026;SDS011;10174;42.688;23.344;2022-10-13T14:01:36;23.30;;;10.65;;
20026;SDS011;10174;42.688;23.344;2022-10-13T14:04:01;30.85;;;10.43;;
20026;SDS011;10174;42.688;23.344;2022-10-13T14:06:27;23.55;;;10.57;;
20026;SDS011;10174;42.688;23.344;2022-10-13T14:08:52;48.17;;;23.52;;
20026;SDS011;10174;42.688;23.344;2022-10-13T14:11:17;26.52;;;12.40;;
20026;SDS011;10174;42.688;23.344;2022-10-13T14:13:43;26.73;;;11.25;;
20026;SDS011;10174;42.688;23.344;2022-10-13T14:16:10;29.75;;;10.07;;
20026;SDS011;10174;42.688;23.344;2022-10-13T14:18:40;17.40;;;10.82;;
20026;SDS011;10174;42.688;23.344;2022-10-13T14:21:06;25.30;;;10.68;;
20026;SDS011;10174;42.688;23.344;2022-10-13T14:23:31;28.45;;;13.73;;
20026;SDS011;10174;42.688;23.344;2022-10-13T14:25:57;26.15;;;10.38;;
20026;SDS011;10174;42.688;23.344;2022-10-13T14:28:22;21.38;;;10.48;;
20026;SDS011;10174;42.688;23.344;2022-10-13T14:30:48;23.00;;;10.70;;
20026;SDS011;10174;42.688;23.344;2022-10-13T14:33:13;26.17;;;11.82;;
20026;SDS011;10174;42.688;23.344;2022-10-13T14:35:43;32.30;;;13.73;;
20026;SDS011;10174;42.688;23.344;2022-10-13T14:38:08;28.77;;;12.82;;
20026;SDS011;10174;42.688;23.344;2022-10-13T14:40:38;23.73;;;12.07;;
20026;SDS011;10174;42.688;23.344;2022-10-13T14:43:05;23.20;;;12.93;;
20026;SDS011;10174;42.688;23.344;2022-10-13T14:45:30;47.03;;;21.83;;
20026;SDS011;10174;42.688;23.344;2022-10-13T14:47:56;44.95;;;23.88;;
20026;SDS011;10174;42.688;23.344;2022-10-13T14:50:21;30.33;;;13.15;;
20026;SDS011;10174;42.688;23.344;2022-10-13T14:52:46;41.63;;;22.15;;
20026;SDS011;10174;42.688;23.344;2022-10-13T14:55:12;34.00;;;15.05;;
20026;SDS011;10174;42.688;23.344;2022-10-13T14:57:37;16.50;;;8.55;;
20026;SDS011;10174;42.688;23.344;2022-10-13T15:00:03;16.85;;;8.70;;
20026;SDS011;10174;42.688;23.344;2022-10-13T15:02:28;19.73;;;8.65;;
20026;SDS011;10174;42.688;23.344;2022-10-13T15:04:54;16.52;;;8.30;;
20026;SDS011;10174;42.688;23.344;2022-10-13T15:07:19;17.20;;;9.38;;
20026;SDS011;10174;42.688;23.344;2022-10-13T15:09:45;16.40;;;8.63;;
20026;SDS011;10174;42.688;23.344;2022-10-13T15:12:10;25.10;;;11.30;;
20026;SDS011;10174;42.688;23.344;2022-10-13T15:14:35;21.27;;;10.68;;
20026;SDS011;10174;42.688;23.344;2022-10-13T15:17:01;21.58;;;9.20;;
20026;SDS011;10174;42.688;23.344;2022-10-13T15:19:27;20.90;;;9.35;;
20026;SDS011;10174;42.688;23.344;2022-10-13T15:21:52;19.33;;;9.05;;
20026;SDS011;10174;42.688;23.344;2022-10-13T15:24:18;20.85;;;9.63;;
20026;SDS011;10174;42.688;23.344;2022-10-13T15:26:43;18.13;;;10.18;;
20026;SDS011;10174;42.688;23.344;2022-10-13T15:29:08;17.05;;;9.68;;
20026;SDS011;10174;42.688;23.344;2022-10-13T15:31:34;20.55;;;9.88;;
20026;SDS011;10174;42.688;23.344;2022-10-13T15:34:00;23.48;;;13.05;;
20026;SDS011;10174;42.688;23.344;2022-10-13T15:36:25;24.67;;;9.48;;
20026;SDS011;10174;42.688;23.344;2022-10-13T15:38:51;20.27;;;9.18;;
20026;SDS011;10174;42.688;23.344;2022-10-13T15:41:16;17.92;;;10.65;;
20026;SDS011;10174;42.688;23.344;2022-10-13T15:43:42;24.52;;;9.50;;
20026;SDS011;10174;42.688;23.344;2022-10-13T15:46:12;17.08;;;8.73;;
20026;SDS011;10174;42.688;23.344;2022-10-13T15:48:45;13.88;;;8.38;;
20026;SDS011;10174;42.688;23.344;2022-10-13T15:51:16;13.95;;;9.05;;
20026;SDS011;10174;42.688;23.344;2022-10-13T15:53:43;16.95;;;8.20;;
20026;SDS011;10174;42.688;23.344;2022-10-13T15:56:09;17.00;;;8.15;;